createdAt,value
2022-08-26T00:00:21.410Z,15.32
2022-08-26T00:03:10.199Z,15.70
2022-08-26T00:05:59.316Z,14.68
2022-08-26T00:08:47.847Z,14.18
2022-08-26T00:11:37.373Z,14.80
2022-08-26T00:14:31.073Z,14.07
2022-08-26T00:17:21.624Z,13.40
2022-08-26T00:20:12.806Z,12.80
2022-08-26T00:23:05.641Z,10.05
2022-08-26T00:25:56.791Z,12.40
2022-08-26T00:28:47.120Z,12.18
2022-08-26T00:31:38.528Z,13.38
2022-08-26T00:34:29.855Z,12.48
2022-08-26T00:37:19.942Z,11.60
2022-08-26T00:40:12.578Z,11.82
2022-08-26T00:43:00.949Z,12.15
2022-08-26T00:45:51.163Z,11.02
2022-08-26T00:48:41.887Z,9.85
2022-08-26T00:51:32.040Z,11.85
2022-08-26T00:54:23.170Z,12.38
2022-08-26T00:57:16.755Z,11.27
2022-08-26T01:00:11.129Z,14.30
2022-08-26T01:03:02.168Z,14.02
2022-08-26T01:05:57.144Z,13.30
2022-08-26T01:08:46.995Z,15.10
2022-08-26T01:11:37.828Z,14.02
2022-08-26T01:14:31.348Z,14.32
2022-08-26T01:17:21.098Z,13.77
2022-08-26T01:20:13.780Z,12.27
2022-08-26T01:23:05.947Z,9.70
2022-08-26T01:25:58.259Z,13.95
2022-08-26T01:28:46.411Z,9.82
2022-08-26T01:31:41.991Z,12.48
2022-08-26T01:34:30.773Z,12.30
2022-08-26T01:37:19.848Z,10.38
2022-08-26T01:40:11.940Z,12.05
2022-08-26T01:42:59.460Z,12.45
2022-08-26T01:45:47.918Z,14.27
2022-08-26T01:48:37.042Z,13.77
2022-08-26T01:51:27.579Z,12.52
2022-08-26T01:54:15.012Z,12.45
2022-08-26T01:57:04.187Z,11.93
2022-08-26T01:59:52.115Z,12.52
2022-08-26T02:02:39.622Z,12.88
2022-08-26T02:05:26.815Z,13.85
2022-08-26T02:08:15.376Z,14.75
2022-08-26T02:11:13.492Z,14.02
2022-08-26T02:14:04.751Z,12.95
2022-08-26T02:16:53.483Z,13.40
2022-08-26T02:19:42.696Z,14.93
2022-08-26T02:22:30.365Z,16.45
2022-08-26T02:25:19.687Z,12.30
2022-08-26T02:28:07.814Z,14.57
2022-08-26T02:30:57.535Z,15.98
2022-08-26T02:33:46.626Z,16.50
2022-08-26T02:36:34.773Z,16.92
2022-08-26T02:39:22.541Z,12.90
2022-08-26T02:42:10.000Z,14.50
2022-08-26T02:44:57.569Z,16.98
2022-08-26T02:47:47.250Z,17.25
2022-08-26T02:50:35.288Z,17.92
2022-08-26T02:53:25.330Z,17.55
2022-08-26T02:56:13.064Z,19.90
2022-08-26T02:59:00.886Z,20.20
2022-08-26T03:01:50.035Z,22.02
2022-08-26T03:04:39.644Z,24.55
2022-08-26T03:07:27.459Z,22.55
2022-08-26T03:10:14.785Z,25.83
2022-08-26T03:13:05.114Z,27.80
2022-08-26T03:15:53.232Z,30.00
2022-08-26T03:18:40.705Z,30.73
2022-08-26T03:21:31.140Z,34.58
2022-08-26T03:24:19.115Z,32.17
2022-08-26T03:27:07.338Z,35.50
2022-08-26T03:30:12.453Z,40.90
2022-08-26T03:32:59.674Z,38.03
2022-08-26T03:35:50.689Z,37.42
2022-08-26T03:38:39.225Z,40.88
2022-08-26T03:41:26.476Z,41.28
2022-08-26T03:44:17.043Z,40.53
2022-08-26T03:47:05.034Z,43.53
2022-08-26T03:49:53.079Z,42.33
2022-08-26T03:52:43.720Z,47.65
2022-08-26T03:55:33.835Z,50.67
2022-08-26T03:58:21.584Z,52.13
2022-08-26T04:01:09.333Z,49.35
2022-08-26T04:04:00.007Z,54.67
2022-08-26T04:06:48.272Z,57.92
2022-08-26T04:09:37.066Z,61.53
2022-08-26T04:12:27.443Z,63.80
2022-08-26T04:15:17.856Z,68.10
2022-08-26T04:18:05.180Z,60.13
2022-08-26T04:20:52.816Z,70.68
2022-08-26T04:23:47.659Z,67.53
2022-08-26T04:26:39.382Z,66.53
2022-08-26T04:29:28.615Z,69.43
2022-08-26T04:32:16.735Z,73.13
2022-08-26T04:35:04.721Z,70.88
2022-08-26T04:37:53.543Z,70.57
2022-08-26T04:40:46.665Z,73.15
2022-08-26T04:43:35.125Z,73.85
2022-08-26T04:46:25.739Z,74.07
2022-08-26T04:49:13.941Z,87.20
2022-08-26T04:52:01.366Z,92.82
2022-08-26T04:54:49.775Z,99.10
2022-08-26T04:57:37.034Z,101.85
2022-08-26T05:00:25.508Z,112.85
2022-08-26T05:03:15.786Z,130.70
2022-08-26T05:06:05.608Z,128.50
2022-08-26T05:08:52.868Z,140.25
2022-08-26T05:11:40.528Z,135.07
2022-08-26T05:14:29.532Z,126.45
2022-08-26T05:17:17.071Z,122.43
2022-08-26T05:20:06.692Z,129.48
2022-08-26T05:22:54.455Z,117.35
2022-08-26T05:25:43.361Z,135.63
2022-08-26T05:28:31.662Z,132.70
2022-08-26T05:31:21.334Z,135.57
2022-08-26T05:34:09.337Z,145.88
2022-08-26T05:36:58.434Z,136.25
2022-08-26T05:39:51.172Z,143.40
2022-08-26T05:42:39.635Z,155.73
2022-08-26T05:45:27.483Z,138.70
2022-08-26T05:48:15.183Z,142.07
2022-08-26T05:51:03.864Z,142.93
2022-08-26T05:53:54.673Z,151.35
2022-08-26T05:56:42.707Z,156.88
2022-08-26T05:59:30.383Z,158.15
2022-08-26T06:02:20.014Z,149.82
2022-08-26T06:05:08.169Z,157.80
2022-08-26T06:08:14.363Z,163.85
2022-08-26T06:11:04.403Z,148.35
2022-08-26T06:13:53.358Z,161.20
2022-08-26T06:16:43.813Z,161.60
2022-08-26T06:19:32.878Z,159.40
2022-08-26T06:22:39.015Z,160.68
2022-08-26T06:25:42.403Z,167.95
2022-08-26T06:28:32.203Z,167.55
2022-08-26T06:31:19.878Z,159.75
2022-08-26T06:34:10.764Z,169.07
2022-08-26T06:37:02.244Z,153.45
2022-08-26T06:39:51.287Z,158.43
2022-08-26T06:42:39.046Z,161.68
2022-08-26T06:45:28.304Z,143.68
2022-08-26T06:48:17.785Z,146.70
2022-08-26T06:51:06.994Z,137.65
2022-08-26T06:53:55.835Z,145.60
2022-08-26T06:56:45.393Z,144.20
2022-08-26T06:59:35.196Z,147.55
2022-08-26T07:02:24.260Z,145.30
2022-08-26T07:05:15.628Z,146.73
2022-08-26T07:08:03.611Z,146.55
2022-08-26T07:10:51.267Z,151.90
2022-08-26T07:13:43.998Z,162.80
2022-08-26T07:16:31.154Z,144.07
2022-08-26T07:19:29.965Z,142.18
2022-08-26T07:22:18.810Z,155.23
2022-08-26T07:25:07.669Z,146.82
2022-08-26T07:27:54.744Z,139.57
2022-08-26T07:30:42.382Z,149.23
2022-08-26T07:33:30.784Z,136.10
2022-08-26T07:36:20.224Z,138.75
2022-08-26T07:39:07.906Z,135.77
2022-08-26T07:41:56.101Z,142.57
2022-08-26T07:44:45.427Z,137.48
2022-08-26T07:47:32.671Z,137.27
2022-08-26T07:50:20.236Z,137.13
2022-08-26T07:53:10.598Z,149.30
2022-08-26T07:55:59.005Z,143.80
2022-08-26T07:58:50.887Z,133.45
2022-08-26T08:01:39.709Z,132.23
2022-08-26T08:04:28.339Z,132.80
2022-08-26T08:07:15.551Z,131.73
2022-08-26T08:10:09.625Z,138.15
2022-08-26T08:12:59.222Z,140.35
2022-08-26T08:15:47.573Z,146.95
2022-08-26T08:18:37.650Z,143.45
2022-08-26T08:21:25.401Z,142.50
2022-08-26T08:24:12.959Z,129.25
2022-08-26T08:27:02.111Z,146.15
2022-08-26T08:29:50.099Z,138.50
2022-08-26T08:32:38.750Z,131.35
2022-08-26T08:35:26.455Z,139.10
2022-08-26T08:38:13.826Z,119.72
2022-08-26T08:41:00.956Z,127.63
2022-08-26T08:43:53.238Z,117.18
2022-08-26T08:46:42.835Z,120.53
2022-08-26T08:49:30.983Z,119.53
2022-08-26T08:52:22.456Z,123.70
2022-08-26T08:55:11.883Z,131.48
2022-08-26T08:58:03.940Z,128.02
2022-08-26T09:00:55.105Z,118.13
2022-08-26T09:03:50.444Z,112.43
2022-08-26T09:06:37.584Z,121.18
2022-08-26T09:09:31.854Z,122.40
2022-08-26T09:12:29.422Z,123.93
2022-08-26T09:15:18.346Z,129.77
2022-08-26T09:18:11.225Z,124.65
2022-08-26T09:21:03.345Z,126.07
2022-08-26T09:23:52.251Z,125.13
2022-08-26T09:26:45.543Z,127.13
2022-08-26T09:29:42.839Z,124.43
2022-08-26T09:32:32.473Z,128.00
2022-08-26T09:35:26.436Z,119.88
2022-08-26T09:38:22.075Z,117.78
2022-08-26T09:41:21.312Z,113.25
2022-08-26T09:44:16.889Z,130.43
2022-08-26T09:47:06.258Z,127.05
2022-08-26T09:49:58.864Z,111.45
2022-08-26T09:52:47.551Z,114.63
2022-08-26T09:55:35.539Z,118.70
2022-08-26T09:58:33.627Z,112.93
2022-08-26T10:01:27.702Z,108.78
2022-08-26T10:04:22.668Z,105.30
2022-08-26T10:07:10.623Z,99.30
2022-08-26T10:09:59.999Z,94.95
2022-08-26T10:12:51.048Z,91.95
2022-08-26T10:15:48.630Z,98.57
2022-08-26T10:18:40.154Z,90.60
2022-08-26T10:21:31.719Z,92.82
2022-08-26T10:24:21.591Z,104.10
2022-08-26T10:27:17.583Z,95.40
2022-08-26T10:30:06.627Z,108.60
2022-08-26T10:32:56.723Z,112.43
2022-08-26T10:35:57.160Z,117.38
2022-08-26T10:38:44.424Z,110.38
2022-08-26T10:41:33.820Z,113.05
2022-08-26T10:44:23.297Z,115.78
2022-08-26T10:47:13.831Z,111.88
2022-08-26T10:50:03.659Z,118.32
2022-08-26T10:53:00.183Z,111.35
2022-08-26T10:55:51.758Z,111.20
2022-08-26T10:58:50.042Z,119.15
2022-08-26T11:01:47.005Z,112.60
2022-08-26T11:04:45.622Z,112.35
2022-08-26T11:07:37.727Z,115.03
2022-08-26T11:10:43.612Z,115.07
2022-08-26T11:13:49.591Z,108.05
2022-08-26T11:16:43.471Z,110.30
2022-08-26T11:20:00.312Z,109.60
2022-08-26T11:22:49.382Z,101.47
2022-08-26T11:25:56.342Z,99.88
2022-08-26T11:28:45.331Z,92.22
2022-08-26T11:31:50.875Z,88.00
2022-08-26T11:34:56.400Z,75.20
2022-08-26T11:37:47.233Z,71.25
2022-08-26T11:40:40.766Z,62.40
2022-08-26T11:43:30.446Z,56.90
2022-08-26T11:46:25.203Z,55.38
2022-08-26T11:49:13.151Z,42.90
2022-08-26T11:52:13.393Z,38.85
2022-08-26T11:55:01.380Z,36.58
2022-08-26T11:57:50.664Z,41.35
2022-08-26T12:00:50.654Z,39.38
2022-08-26T12:03:41.499Z,36.45
2022-08-26T12:06:29.872Z,36.33
2022-08-26T12:09:23.967Z,29.58
2022-08-26T12:12:12.890Z,30.25
2022-08-26T12:15:08.704Z,30.77
2022-08-26T12:17:56.459Z,27.55
2022-08-26T12:20:48.567Z,29.85
2022-08-26T12:23:42.072Z,26.40
2022-08-26T12:26:33.818Z,23.40
2022-08-26T12:29:26.747Z,22.20
2022-08-26T12:32:15.715Z,22.17
2022-08-26T12:37:53.590Z,25.90
2022-08-26T12:40:42.122Z,22.95
2022-08-26T12:43:41.852Z,20.95
2022-08-26T12:46:30.736Z,22.77
2022-08-26T12:49:20.031Z,20.85
2022-08-26T12:52:09.015Z,22.65
2022-08-26T12:55:03.236Z,21.60
2022-08-26T12:57:50.899Z,27.83
2022-08-26T13:00:41.092Z,19.92
2022-08-26T13:03:30.263Z,25.23
2022-08-26T13:06:25.881Z,28.95
2022-08-26T13:09:27.901Z,25.63
2022-08-26T13:12:24.259Z,25.05
2022-08-26T13:15:11.671Z,24.05
2022-08-26T13:18:00.413Z,26.88
2022-08-26T13:20:47.732Z,19.05
2022-08-26T13:23:38.375Z,20.45
2022-08-26T13:26:28.815Z,19.25
2022-08-26T13:29:16.826Z,21.67
2022-08-26T13:32:05.668Z,19.98
2022-08-26T13:34:54.919Z,22.17
2022-08-26T13:37:41.979Z,25.83
2022-08-26T13:40:33.853Z,21.75
2022-08-26T13:43:22.127Z,23.42
2022-08-26T13:46:09.519Z,18.88
2022-08-26T13:48:56.907Z,22.65
2022-08-26T13:51:45.902Z,22.70
2022-08-26T13:54:33.630Z,26.35
2022-08-26T13:57:24.827Z,18.58
2022-08-26T14:00:16.173Z,20.92
2022-08-26T14:03:04.085Z,20.83
2022-08-26T14:05:51.053Z,19.33
2022-08-26T14:08:40.132Z,17.77
2022-08-26T14:11:29.208Z,17.48
2022-08-26T14:14:25.114Z,18.85
2022-08-26T14:17:13.715Z,19.85
2022-08-26T14:20:01.594Z,18.50
2022-08-26T14:23:12.721Z,15.65
2022-08-26T14:25:57.589Z,20.50
2022-08-26T14:28:44.861Z,18.08
2022-08-26T14:31:33.122Z,16.48
2022-08-26T14:34:20.490Z,17.27
2022-08-26T14:37:09.876Z,16.52
2022-08-26T14:39:59.864Z,15.02
2022-08-26T14:42:52.676Z,19.90
2022-08-26T14:48:38.812Z,16.60
2022-08-26T14:51:26.747Z,16.08
2022-08-26T14:54:14.696Z,16.35
2022-08-26T14:57:03.631Z,16.42
2022-08-26T14:59:51.998Z,15.57
2022-08-26T15:02:39.586Z,18.17
2022-08-26T15:05:27.256Z,15.00
2022-08-26T15:08:14.153Z,18.50
2022-08-26T15:11:01.723Z,19.20
2022-08-26T15:13:48.905Z,14.10
2022-08-26T15:16:38.987Z,15.85
2022-08-26T15:19:26.996Z,20.48
2022-08-26T15:22:14.587Z,16.73
2022-08-26T15:25:01.849Z,20.48
2022-08-26T15:27:49.064Z,19.73
2022-08-26T15:30:36.418Z,16.55
2022-08-26T15:33:25.115Z,17.33
2022-08-26T15:36:12.451Z,14.60
2022-08-26T15:39:00.489Z,15.88
2022-08-26T15:41:48.208Z,14.05
2022-08-26T15:44:36.687Z,16.92
2022-08-26T15:47:23.920Z,15.60
2022-08-26T15:50:13.076Z,15.85
2022-08-26T15:53:01.452Z,15.07
2022-08-26T15:55:48.863Z,15.75
2022-08-26T15:58:37.005Z,15.10
2022-08-26T16:01:27.205Z,16.75
2022-08-26T16:04:16.511Z,11.52
2022-08-26T16:07:05.950Z,12.90
2022-08-26T16:09:54.642Z,11.25
2022-08-26T16:12:42.275Z,14.23
2022-08-26T16:15:29.457Z,12.68
2022-08-26T16:18:16.982Z,13.32
2022-08-26T16:21:13.729Z,12.88
2022-08-26T16:24:03.579Z,16.98
2022-08-26T16:26:51.087Z,17.25
2022-08-26T16:29:39.591Z,15.77
2022-08-26T16:32:30.749Z,14.23
2022-08-26T16:35:18.684Z,16.90
2022-08-26T16:38:06.807Z,17.15
2022-08-26T16:40:55.743Z,17.30
2022-08-26T16:43:43.231Z,14.43
2022-08-26T16:46:30.379Z,14.68
2022-08-26T16:49:17.599Z,15.60
2022-08-26T16:52:05.445Z,15.38
2022-08-26T16:54:53.176Z,15.30
2022-08-26T16:57:42.590Z,14.88
2022-08-26T17:00:33.003Z,14.52
2022-08-26T17:03:20.928Z,17.30
2022-08-26T17:06:08.639Z,16.95
2022-08-26T17:08:56.150Z,14.57
2022-08-26T17:11:43.560Z,17.33
2022-08-26T17:14:33.711Z,16.90
2022-08-26T17:17:20.963Z,20.05
2022-08-26T17:20:10.166Z,17.35
2022-08-26T17:22:57.428Z,17.83
2022-08-26T17:25:44.544Z,16.75
2022-08-26T17:28:32.196Z,19.33
2022-08-26T17:31:21.653Z,16.45
2022-08-26T17:34:09.784Z,15.27
2022-08-26T17:36:56.947Z,13.65
2022-08-26T17:39:44.293Z,14.55
2022-08-26T17:42:32.059Z,14.10
2022-08-26T17:48:11.711Z,18.23
2022-08-26T17:50:59.917Z,15.20
2022-08-26T17:53:48.951Z,15.45
2022-08-26T17:56:36.477Z,17.38
2022-08-26T17:59:24.764Z,15.93
2022-08-26T18:02:17.803Z,15.43
2022-08-26T18:05:07.070Z,17.17
2022-08-26T18:07:54.210Z,19.38
2022-08-26T18:10:42.691Z,20.58
2022-08-26T18:13:30.065Z,22.55
2022-08-26T18:16:17.885Z,18.70
2022-08-26T18:19:05.689Z,19.15
2022-08-26T18:21:54.179Z,15.75
2022-08-26T18:24:41.736Z,16.95
2022-08-26T18:27:45.667Z,14.30
2022-08-26T18:30:33.356Z,16.20
2022-08-26T18:33:22.079Z,16.00
2022-08-26T18:36:09.635Z,16.20
2022-08-26T18:38:59.036Z,17.42
2022-08-26T18:41:47.558Z,16.92
2022-08-26T18:44:35.233Z,16.23
2022-08-26T18:47:22.867Z,16.15
2022-08-26T18:50:11.068Z,14.00
2022-08-26T18:52:58.264Z,12.63
2022-08-26T18:55:47.253Z,14.00
2022-08-26T18:58:34.524Z,13.25
2022-08-26T19:01:26.632Z,15.82
2022-08-26T19:04:15.768Z,15.27
2022-08-26T19:07:02.953Z,15.57
2022-08-26T19:09:53.928Z,16.50
2022-08-26T19:12:43.889Z,13.32
2022-08-26T19:15:31.358Z,14.65
2022-08-26T19:18:19.915Z,11.90
2022-08-26T19:21:07.563Z,15.85
2022-08-26T19:23:58.138Z,12.32
2022-08-26T19:26:46.658Z,15.60
2022-08-26T19:29:36.107Z,17.15
2022-08-26T19:32:24.279Z,15.82
2022-08-26T19:35:11.615Z,16.73
2022-08-26T19:37:58.871Z,18.20
2022-08-26T19:40:45.760Z,15.40
2022-08-26T19:43:32.764Z,14.63
2022-08-26T19:46:23.354Z,17.10
2022-08-26T19:49:10.587Z,17.20
2022-08-26T19:51:57.527Z,20.80
2022-08-26T19:54:44.651Z,19.70
2022-08-26T19:57:32.134Z,20.77
2022-08-26T20:00:22.086Z,19.45
2022-08-26T20:03:15.875Z,27.77
2022-08-26T20:06:03.936Z,19.85
2022-08-26T20:08:52.119Z,18.80
2022-08-26T20:11:43.766Z,19.65
2022-08-26T20:14:32.038Z,19.80
2022-08-26T20:17:19.913Z,18.75
2022-08-26T20:20:32.974Z,23.15
2022-08-26T20:23:21.603Z,19.52
2022-08-26T20:26:08.910Z,25.90
2022-08-26T20:28:57.841Z,22.73
2022-08-26T20:31:45.179Z,27.88
2022-08-26T20:34:32.871Z,32.53
2022-08-26T20:37:22.396Z,33.90
2022-08-26T20:40:10.925Z,29.23
2022-08-26T20:42:58.827Z,33.35
2022-08-26T20:45:46.581Z,35.95
2022-08-26T20:48:33.999Z,33.70
2022-08-26T20:51:21.580Z,30.40
2022-08-26T20:54:12.335Z,26.45
2022-08-26T20:56:59.999Z,30.48
2022-08-26T20:59:47.743Z,29.83
2022-08-26T21:02:39.748Z,25.45
2022-08-26T21:05:27.683Z,23.90
2022-08-26T21:08:15.559Z,21.15
2022-08-26T21:11:12.975Z,26.52
2022-08-26T21:14:04.435Z,25.05
2022-08-26T21:17:04.067Z,25.30
2022-08-26T21:19:51.892Z,23.02
2022-08-26T21:22:39.819Z,23.17
2022-08-26T21:25:27.434Z,23.98
2022-08-26T21:28:16.175Z,22.60
2022-08-26T21:31:04.616Z,18.92
2022-08-26T21:33:53.139Z,24.50
2022-08-26T21:36:41.022Z,24.83
2022-08-26T21:39:28.860Z,21.20
2022-08-26T21:42:16.335Z,24.52
2022-08-26T21:45:05.700Z,24.92
2022-08-26T21:47:53.673Z,21.02
2022-08-26T21:50:41.347Z,27.67
2022-08-26T21:53:28.929Z,26.40
2022-08-26T21:56:18.606Z,27.05
2022-08-26T21:59:06.305Z,27.02
2022-08-26T22:01:56.821Z,37.45
2022-08-26T22:04:48.735Z,34.20
2022-08-26T22:07:36.902Z,32.30
2022-08-26T22:10:24.134Z,36.42
2022-08-26T22:13:12.760Z,32.63
2022-08-26T22:16:02.986Z,34.28
2022-08-26T22:18:53.366Z,26.90
2022-08-26T22:21:41.163Z,29.60
2022-08-26T22:24:28.927Z,29.42
2022-08-26T22:27:16.057Z,30.02
2022-08-26T22:30:03.723Z,27.00
2022-08-26T22:32:51.636Z,27.58
2022-08-26T22:35:42.548Z,27.48
2022-08-26T22:38:30.471Z,23.40
2022-08-26T22:41:19.073Z,22.58
2022-08-26T22:44:06.566Z,24.92
2022-08-26T22:46:55.479Z,20.27
2022-08-26T22:49:43.423Z,18.98
2022-08-26T22:52:32.590Z,23.75
2022-08-26T22:55:19.775Z,20.85
2022-08-26T22:58:07.703Z,21.83
2022-08-26T23:00:55.098Z,20.70
2022-08-26T23:03:42.944Z,21.85
2022-08-26T23:06:30.467Z,22.08
2022-08-26T23:09:19.288Z,19.73
2022-08-26T23:12:06.689Z,18.75
2022-08-26T23:14:53.720Z,19.30
2022-08-26T23:17:41.031Z,20.63
2022-08-26T23:20:28.821Z,19.05
2022-08-26T23:23:15.811Z,20.08
2022-08-26T23:26:06.238Z,18.90
2022-08-26T23:28:53.659Z,18.17
2022-08-26T23:31:41.998Z,19.70
2022-08-26T23:34:46.715Z,21.45
2022-08-26T23:37:36.628Z,16.02
2022-08-26T23:40:27.954Z,18.42
2022-08-26T23:43:16.731Z,18.30
2022-08-26T23:46:03.924Z,17.98
2022-08-26T23:48:52.399Z,19.38
2022-08-26T23:51:57.059Z,17.13
2022-08-26T23:57:31.394Z,17.00
